sensor_id;sensor_type;location;lat;lon;timestamp;P1;durP1;ratioP1;P2;durP2;ratioP2
6467;SDS011;3267;48.794;9.928;2022-08-21T04:01:37;3.22;;;2.33;;
6467;SDS011;3267;48.794;9.928;2022-08-21T04:04:05;6.95;;;1.50;;
6467;SDS011;3267;48.794;9.928;2022-08-21T04:06:32;2.83;;;1.70;;
6467;SDS011;3267;48.794;9.928;2022-08-21T04:08:58;2.08;;;1.85;;
6467;SDS011;3267;48.794;9.928;2022-08-21T04:11:24;5.45;;;2.25;;
6467;SDS011;3267;48.794;9.928;2022-08-21T04:13:50;2.35;;;1.90;;
6467;SDS011;3267;48.794;9.928;2022-08-21T04:16:16;6.68;;;1.90;;
6467;SDS011;3267;48.794;9.928;2022-08-21T04:18:42;2.15;;;1.98;;
6467;SDS011;3267;48.794;9.928;2022-08-21T04:21:08;5.43;;;1.92;;
6467;SDS011;3267;48.794;9.928;2022-08-21T04:23:36;2.47;;;2.17;;
6467;SDS011;3267;48.794;9.928;2022-08-21T04:26:02;2.13;;;1.92;;
6467;SDS011;3267;48.794;9.928;2022-08-21T04:28:28;2.80;;;1.88;;
6467;SDS011;3267;48.794;9.928;2022-08-21T04:30:55;2.45;;;1.60;;
6467;SDS011;3267;48.794;9.928;2022-08-21T04:33:21;3.40;;;1.83;;
6467;SDS011;3267;48.794;9.928;2022-08-21T04:35:47;2.20;;;1.75;;
6467;SDS011;3267;48.794;9.928;2022-08-21T04:38:14;2.88;;;2.30;;
6467;SDS011;3267;48.794;9.928;2022-08-21T04:40:40;2.90;;;2.03;;
6467;SDS011;3267;48.794;9.928;2022-08-21T04:43:07;3.30;;;1.90;;
6467;SDS011;3267;48.794;9.928;2022-08-21T04:45:38;2.25;;;1.90;;
6467;SDS011;3267;48.794;9.928;2022-08-21T04:48:10;3.65;;;1.73;;
6467;SDS011;3267;48.794;9.928;2022-08-21T04:50:39;3.10;;;1.70;;
6467;SDS011;3267;48.794;9.928;2022-08-21T04:53:17;4.00;;;2.50;;
6467;SDS011;3267;48.794;9.928;2022-08-21T04:55:47;4.32;;;2.00;;
6467;SDS011;3267;48.794;9.928;2022-08-21T04:58:14;2.80;;;2.00;;
6467;SDS011;3267;48.794;9.928;2022-08-21T05:00:43;2.58;;;2.35;;
6467;SDS011;3267;48.794;9.928;2022-08-21T05:03:10;2.33;;;2.10;;
6467;SDS011;3267;48.794;9.928;2022-08-21T05:05:37;6.97;;;2.65;;
6467;SDS011;3267;48.794;9.928;2022-08-21T05:08:05;4.63;;;3.10;;
6467;SDS011;3267;48.794;9.928;2022-08-21T05:10:34;8.35;;;2.15;;
6467;SDS011;3267;48.794;9.928;2022-08-21T05:13:01;2.65;;;2.03;;
6467;SDS011;3267;48.794;9.928;2022-08-21T05:15:27;3.95;;;2.40;;
6467;SDS011;3267;48.794;9.928;2022-08-21T05:17:53;3.50;;;2.20;;
6467;SDS011;3267;48.794;9.928;2022-08-21T05:20:19;6.50;;;2.15;;
6467;SDS011;3267;48.794;9.928;2022-08-21T05:22:45;2.67;;;2.17;;
6467;SDS011;3267;48.794;9.928;2022-08-21T05:25:11;3.85;;;2.42;;
6467;SDS011;3267;48.794;9.928;2022-08-21T05:27:37;3.40;;;2.08;;
6467;SDS011;3267;48.794;9.928;2022-08-21T05:30:04;2.60;;;2.13;;
6467;SDS011;3267;48.794;9.928;2022-08-21T05:32:32;2.30;;;1.80;;
6467;SDS011;3267;48.794;9.928;2022-08-21T05:34:59;3.97;;;2.28;;
6467;SDS011;3267;48.794;9.928;2022-08-21T05:37:24;4.13;;;2.22;;
6467;SDS011;3267;48.794;9.928;2022-08-21T05:39:50;3.60;;;2.10;;
6467;SDS011;3267;48.794;9.928;2022-08-21T05:42:16;2.80;;;2.13;;
6467;SDS011;3267;48.794;9.928;2022-08-21T05:44:42;2.17;;;1.98;;
6467;SDS011;3267;48.794;9.928;2022-08-21T05:47:08;2.13;;;1.85;;
6467;SDS011;3267;48.794;9.928;2022-08-21T05:49:36;7.72;;;2.50;;
6467;SDS011;3267;48.794;9.928;2022-08-21T05:52:03;3.38;;;2.50;;
6467;SDS011;3267;48.794;9.928;2022-08-21T05:54:29;6.82;;;2.03;;
6467;SDS011;3267;48.794;9.928;2022-08-21T05:56:56;3.95;;;2.53;;
6467;SDS011;3267;48.794;9.928;2022-08-21T05:59:22;6.75;;;2.58;;
6467;SDS011;3267;48.794;9.928;2022-08-21T06:01:48;6.18;;;2.33;;
6467;SDS011;3267;48.794;9.928;2022-08-21T06:04:14;4.30;;;1.95;;
6467;SDS011;3267;48.794;9.928;2022-08-21T06:06:41;1.98;;;1.75;;
6467;SDS011;3267;48.794;9.928;2022-08-21T06:09:07;2.83;;;2.20;;
6467;SDS011;3267;48.794;9.928;2022-08-21T06:11:33;3.25;;;2.40;;
6467;SDS011;3267;48.794;9.928;2022-08-21T06:13:59;2.80;;;1.90;;
6467;SDS011;3267;48.794;9.928;2022-08-21T06:16:26;2.95;;;1.92;;
6467;SDS011;3267;48.794;9.928;2022-08-21T06:18:52;5.00;;;2.22;;
6467;SDS011;3267;48.794;9.928;2022-08-21T06:21:18;2.55;;;2.17;;
6467;SDS011;3267;48.794;9.928;2022-08-21T06:23:44;3.58;;;1.90;;
6467;SDS011;3267;48.794;9.928;2022-08-21T06:26:11;2.92;;;1.83;;
6467;SDS011;3267;48.794;9.928;2022-08-21T06:28:38;1.95;;;1.70;;
6467;SDS011;3267;48.794;9.928;2022-08-21T06:31:14;2.65;;;2.10;;
6467;SDS011;3267;48.794;9.928;2022-08-21T06:33:45;4.25;;;1.83;;
6467;SDS011;3267;48.794;9.928;2022-08-21T06:36:11;3.88;;;2.20;;
6467;SDS011;3267;48.794;9.928;2022-08-21T06:38:37;1.95;;;1.85;;
6467;SDS011;3267;48.794;9.928;2022-08-21T06:41:03;3.05;;;2.00;;
6467;SDS011;3267;48.794;9.928;2022-08-21T06:43:29;3.03;;;2.03;;
6467;SDS011;3267;48.794;9.928;2022-08-21T06:45:55;2.63;;;1.95;;
6467;SDS011;3267;48.794;9.928;2022-08-21T06:48:21;2.50;;;1.90;;
6467;SDS011;3267;48.794;9.928;2022-08-21T06:50:48;3.72;;;1.80;;
6467;SDS011;3267;48.794;9.928;2022-08-21T06:53:15;2.45;;;1.58;;
6467;SDS011;3267;48.794;9.928;2022-08-21T06:55:43;4.00;;;2.08;;
6467;SDS011;3267;48.794;9.928;2022-08-21T06:58:09;2.63;;;1.63;;
6467;SDS011;3267;48.794;9.928;2022-08-21T07:00:41;5.60;;;1.90;;
6467;SDS011;3267;48.794;9.928;2022-08-21T07:03:19;3.88;;;2.03;;
6467;SDS011;3267;48.794;9.928;2022-08-21T07:05:50;2.88;;;2.13;;
6467;SDS011;3267;48.794;9.928;2022-08-21T07:08:17;3.28;;;1.90;;
6467;SDS011;3267;48.794;9.928;2022-08-21T07:10:43;2.78;;;2.10;;
6467;SDS011;3267;48.794;9.928;2022-08-21T07:13:09;2.72;;;1.90;;
6467;SDS011;3267;48.794;9.928;2022-08-21T07:15:35;3.65;;;1.88;;
6467;SDS011;3267;48.794;9.928;2022-08-21T07:18:01;2.55;;;1.85;;
6467;SDS011;3267;48.794;9.928;2022-08-21T07:20:27;7.50;;;1.90;;
6467;SDS011;3267;48.794;9.928;2022-08-21T07:22:54;3.28;;;1.90;;
6467;SDS011;3267;48.794;9.928;2022-08-21T07:25:22;4.50;;;2.03;;
6467;SDS011;3267;48.794;9.928;2022-08-21T07:27:48;2.55;;;1.80;;
6467;SDS011;3267;48.794;9.928;2022-08-21T07:30:13;3.95;;;1.70;;
6467;SDS011;3267;48.794;9.928;2022-08-21T07:32:39;1.88;;;1.67;;
6467;SDS011;3267;48.794;9.928;2022-08-21T07:35:05;5.75;;;2.08;;
6467;SDS011;3267;48.794;9.928;2022-08-21T07:37:32;5.97;;;1.83;;
6467;SDS011;3267;48.794;9.928;2022-08-21T07:39:58;2.80;;;1.52;;
6467;SDS011;3267;48.794;9.928;2022-08-21T07:42:23;3.17;;;1.77;;
6467;SDS011;3267;48.794;9.928;2022-08-21T07:44:49;2.92;;;1.67;;
6467;SDS011;3267;48.794;9.928;2022-08-21T07:47:15;3.63;;;1.60;;
6467;SDS011;3267;48.794;9.928;2022-08-21T07:49:41;5.80;;;1.98;;
6467;SDS011;3267;48.794;9.928;2022-08-21T07:52:07;4.75;;;2.10;;
6467;SDS011;3267;48.794;9.928;2022-08-21T07:54:33;4.90;;;2.05;;
6467;SDS011;3267;48.794;9.928;2022-08-21T07:56:59;2.10;;;1.90;;
6467;SDS011;3267;48.794;9.928;2022-08-21T07:59:24;8.07;;;1.92;;
6467;SDS011;3267;48.794;9.928;2022-08-21T08:01:50;2.58;;;2.30;;
6467;SDS011;3267;48.794;9.928;2022-08-21T08:04:16;3.13;;;2.03;;
6467;SDS011;3267;48.794;9.928;2022-08-21T08:06:42;6.18;;;2.08;;
6467;SDS011;3267;48.794;9.928;2022-08-21T08:09:08;3.88;;;2.35;;
6467;SDS011;3267;48.794;9.928;2022-08-21T08:11:35;3.53;;;2.22;;
6467;SDS011;3267;48.794;9.928;2022-08-21T08:14:04;8.50;;;2.40;;
6467;SDS011;3267;48.794;9.928;2022-08-21T08:16:29;6.63;;;1.90;;
6467;SDS011;3267;48.794;9.928;2022-08-21T08:18:55;6.00;;;2.05;;
6467;SDS011;3267;48.794;9.928;2022-08-21T08:21:21;5.32;;;2.38;;
6467;SDS011;3267;48.794;9.928;2022-08-21T08:23:47;3.85;;;2.50;;
6467;SDS011;3267;48.794;9.928;2022-08-21T08:26:13;5.20;;;2.50;;
6467;SDS011;3267;48.794;9.928;2022-08-21T08:28:40;5.65;;;2.53;;
6467;SDS011;3267;48.794;9.928;2022-08-21T08:31:07;2.72;;;2.50;;
6467;SDS011;3267;48.794;9.928;2022-08-21T08:33:32;5.85;;;2.80;;
6467;SDS011;3267;48.794;9.928;2022-08-21T08:35:58;3.85;;;2.67;;
6467;SDS011;3267;48.794;9.928;2022-08-21T08:38:24;9.40;;;3.03;;
6467;SDS011;3267;48.794;9.928;2022-08-21T08:41:10;6.28;;;2.78;;
6467;SDS011;3267;48.794;9.928;2022-08-21T08:43:38;4.50;;;3.00;;
6467;SDS011;3267;48.794;9.928;2022-08-21T08:46:06;3.95;;;3.03;;
6467;SDS011;3267;48.794;9.928;2022-08-21T08:51:15;3.85;;;3.22;;
6467;SDS011;3267;48.794;9.928;2022-08-21T08:53:51;5.78;;;3.90;;
6467;SDS011;3267;48.794;9.928;2022-08-21T08:56:24;4.88;;;3.45;;
6467;SDS011;3267;48.794;9.928;2022-08-21T08:58:53;4.10;;;3.03;;
6467;SDS011;3267;48.794;9.928;2022-08-21T09:01:24;7.60;;;2.80;;
6467;SDS011;3267;48.794;9.928;2022-08-21T09:03:49;4.40;;;3.28;;
6467;SDS011;3267;48.794;9.928;2022-08-21T09:14:15;6.03;;;3.03;;
6467;SDS011;3267;48.794;9.928;2022-08-21T09:16:56;5.95;;;2.85;;
6467;SDS011;3267;48.794;9.928;2022-08-21T09:19:53;4.57;;;2.72;;
6467;SDS011;3267;48.794;9.928;2022-08-21T09:25:21;4.60;;;2.60;;
6467;SDS011;3267;48.794;9.928;2022-08-21T09:27:50;6.20;;;3.13;;
6467;SDS011;3267;48.794;9.928;2022-08-21T09:30:17;9.13;;;3.10;;
6467;SDS011;3267;48.794;9.928;2022-08-21T09:32:44;5.10;;;2.45;;
6467;SDS011;3267;48.794;9.928;2022-08-21T09:37:55;8.82;;;3.50;;
6467;SDS011;3267;48.794;9.928;2022-08-21T09:43:02;4.18;;;2.67;;
6467;SDS011;3267;48.794;9.928;2022-08-21T09:45:46;6.38;;;2.78;;
6467;SDS011;3267;48.794;9.928;2022-08-21T09:48:20;2.75;;;2.38;;
6467;SDS011;3267;48.794;9.928;2022-08-21T09:50:48;4.40;;;2.22;;
6467;SDS011;3267;48.794;9.928;2022-08-21T09:53:17;3.90;;;2.40;;
6467;SDS011;3267;48.794;9.928;2022-08-21T09:55:53;5.60;;;2.63;;
6467;SDS011;3267;48.794;9.928;2022-08-21T09:58:43;4.45;;;2.78;;
6467;SDS011;3267;48.794;9.928;2022-08-21T10:01:15;4.32;;;2.38;;
6467;SDS011;3267;48.794;9.928;2022-08-21T10:03:46;4.22;;;2.60;;
6467;SDS011;3267;48.794;9.928;2022-08-21T10:06:26;2.95;;;2.47;;
6467;SDS011;3267;48.794;9.928;2022-08-21T10:09:03;3.13;;;2.30;;
6467;SDS011;3267;48.794;9.928;2022-08-21T10:11:38;6.15;;;2.47;;
6467;SDS011;3267;48.794;9.928;2022-08-21T10:33:26;4.05;;;2.17;;
6467;SDS011;3267;48.794;9.928;2022-08-21T10:36:21;3.20;;;1.88;;
6467;SDS011;3267;48.794;9.928;2022-08-21T10:44:41;3.78;;;2.10;;
6467;SDS011;3267;48.794;9.928;2022-08-21T10:47:12;3.75;;;2.22;;
6467;SDS011;3267;48.794;9.928;2022-08-21T10:49:48;4.72;;;2.63;;
6467;SDS011;3267;48.794;9.928;2022-08-21T10:55:21;5.63;;;2.40;;
6467;SDS011;3267;48.794;9.928;2022-08-21T10:58:10;4.68;;;2.00;;
6467;SDS011;3267;48.794;9.928;2022-08-21T11:00:49;4.68;;;1.85;;
6467;SDS011;3267;48.794;9.928;2022-08-21T11:03:24;5.78;;;2.00;;
6467;SDS011;3267;48.794;9.928;2022-08-21T11:06:00;4.03;;;2.00;;
6467;SDS011;3267;48.794;9.928;2022-08-21T11:08:38;4.78;;;2.65;;
6467;SDS011;3267;48.794;9.928;2022-08-21T11:11:15;6.32;;;2.58;;
6467;SDS011;3267;48.794;9.928;2022-08-21T11:13:47;6.60;;;2.40;;
6467;SDS011;3267;48.794;9.928;2022-08-21T11:16:20;3.75;;;1.98;;
6467;SDS011;3267;48.794;9.928;2022-08-21T11:21:52;7.85;;;2.50;;
6467;SDS011;3267;48.794;9.928;2022-08-21T11:24:42;6.13;;;1.75;;
6467;SDS011;3267;48.794;9.928;2022-08-21T11:29:55;2.95;;;2.17;;
6467;SDS011;3267;48.794;9.928;2022-08-21T11:35:39;6.15;;;2.05;;
6467;SDS011;3267;48.794;9.928;2022-08-21T11:41:16;4.28;;;2.15;;
6467;SDS011;3267;48.794;9.928;2022-08-21T11:43:46;3.28;;;2.30;;
6467;SDS011;3267;48.794;9.928;2022-08-21T11:46:17;2.83;;;2.10;;
6467;SDS011;3267;48.794;9.928;2022-08-21T11:51:41;3.38;;;1.63;;
6467;SDS011;3267;48.794;9.928;2022-08-21T11:57:01;4.72;;;2.00;;
6467;SDS011;3267;48.794;9.928;2022-08-21T11:59:38;7.68;;;2.05;;
6467;SDS011;3267;48.794;9.928;2022-08-21T12:02:14;3.20;;;1.80;;
6467;SDS011;3267;48.794;9.928;2022-08-21T12:04:45;3.28;;;2.00;;
6467;SDS011;3267;48.794;9.928;2022-08-21T12:10:07;2.85;;;1.80;;
6467;SDS011;3267;48.794;9.928;2022-08-21T12:12:40;13.82;;;2.00;;
6467;SDS011;3267;48.794;9.928;2022-08-21T12:23:14;5.13;;;1.63;;
6467;SDS011;3267;48.794;9.928;2022-08-21T12:26:03;2.70;;;1.90;;
6467;SDS011;3267;48.794;9.928;2022-08-21T12:28:38;2.00;;;1.63;;
6467;SDS011;3267;48.794;9.928;2022-08-21T12:31:15;6.90;;;1.67;;
6467;SDS011;3267;48.794;9.928;2022-08-21T12:33:51;3.88;;;1.80;;
6467;SDS011;3267;48.794;9.928;2022-08-21T12:36:23;3.65;;;2.08;;
6467;SDS011;3267;48.794;9.928;2022-08-21T12:39:05;4.32;;;1.77;;
6467;SDS011;3267;48.794;9.928;2022-08-21T12:42:29;6.10;;;1.80;;
6467;SDS011;3267;48.794;9.928;2022-08-21T12:44:45;5.15;;;1.98;;
6467;SDS011;3267;48.794;9.928;2022-08-21T12:47:17;3.25;;;1.92;;
6467;SDS011;3267;48.794;9.928;2022-08-21T12:50:05;2.25;;;1.77;;
6467;SDS011;3267;48.794;9.928;2022-08-21T12:52:38;6.97;;;1.90;;
6467;SDS011;3267;48.794;9.928;2022-08-21T12:55:12;2.75;;;1.73;;
6467;SDS011;3267;48.794;9.928;2022-08-21T12:57:41;3.15;;;1.88;;
6467;SDS011;3267;48.794;9.928;2022-08-21T13:00:08;3.00;;;1.95;;
6467;SDS011;3267;48.794;9.928;2022-08-21T13:02:45;5.72;;;1.77;;
6467;SDS011;3267;48.794;9.928;2022-08-21T13:05:14;4.88;;;2.55;;
6467;SDS011;3267;48.794;9.928;2022-08-21T13:07:48;7.03;;;2.10;;
6467;SDS011;3267;48.794;9.928;2022-08-21T13:12:47;3.92;;;1.88;;
6467;SDS011;3267;48.794;9.928;2022-08-21T13:15:13;2.70;;;1.80;;
6467;SDS011;3267;48.794;9.928;2022-08-21T13:17:41;6.07;;;1.90;;
6467;SDS011;3267;48.794;9.928;2022-08-21T13:20:23;4.63;;;2.15;;
6467;SDS011;3267;48.794;9.928;2022-08-21T13:22:52;4.63;;;1.55;;
6467;SDS011;3267;48.794;9.928;2022-08-21T13:25:19;5.63;;;2.10;;
6467;SDS011;3267;48.794;9.928;2022-08-21T13:27:57;2.92;;;2.08;;
6467;SDS011;3267;48.794;9.928;2022-08-21T13:30:31;2.10;;;1.63;;
6467;SDS011;3267;48.794;9.928;2022-08-21T13:32:58;4.30;;;2.10;;
6467;SDS011;3267;48.794;9.928;2022-08-21T13:35:30;6.82;;;1.60;;
6467;SDS011;3267;48.794;9.928;2022-08-21T13:38:02;2.35;;;1.70;;
6467;SDS011;3267;48.794;9.928;2022-08-21T13:40:44;3.85;;;1.90;;
6467;SDS011;3267;48.794;9.928;2022-08-21T13:43:15;4.43;;;1.85;;
6467;SDS011;3267;48.794;9.928;2022-08-21T13:45:46;3.75;;;1.85;;
6467;SDS011;3267;48.794;9.928;2022-08-21T13:48:14;2.28;;;1.50;;
6467;SDS011;3267;48.794;9.928;2022-08-21T13:50:41;4.70;;;1.70;;
6467;SDS011;3267;48.794;9.928;2022-08-21T13:53:19;3.95;;;1.80;;
6467;SDS011;3267;48.794;9.928;2022-08-21T13:55:46;5.30;;;1.67;;
6467;SDS011;3267;48.794;9.928;2022-08-21T13:58:12;3.58;;;1.63;;
6467;SDS011;3267;48.794;9.928;2022-08-21T14:00:50;3.80;;;1.80;;
6467;SDS011;3267;48.794;9.928;2022-08-21T14:03:26;3.47;;;1.50;;
6467;SDS011;3267;48.794;9.928;2022-08-21T14:06:26;4.13;;;1.88;;
6467;SDS011;3267;48.794;9.928;2022-08-21T14:09:00;4.03;;;1.60;;
6467;SDS011;3267;48.794;9.928;2022-08-21T14:11:34;3.35;;;1.77;;
6467;SDS011;3267;48.794;9.928;2022-08-21T14:14:05;4.18;;;2.00;;
6467;SDS011;3267;48.794;9.928;2022-08-21T14:16:46;2.15;;;1.55;;
6467;SDS011;3267;48.794;9.928;2022-08-21T14:21:48;2.60;;;1.73;;
6467;SDS011;3267;48.794;9.928;2022-08-21T14:27:06;2.70;;;1.70;;
6467;SDS011;3267;48.794;9.928;2022-08-21T14:29:34;12.70;;;2.22;;
6467;SDS011;3267;48.794;9.928;2022-08-21T14:32:08;4.10;;;2.20;;
6467;SDS011;3267;48.794;9.928;2022-08-21T14:34:44;7.85;;;1.90;;
6467;SDS011;3267;48.794;9.928;2022-08-21T14:37:10;3.92;;;1.98;;
6467;SDS011;3267;48.794;9.928;2022-08-21T14:39:36;2.15;;;1.80;;
6467;SDS011;3267;48.794;9.928;2022-08-21T14:42:02;2.95;;;1.73;;
6467;SDS011;3267;48.794;9.928;2022-08-21T14:44:28;4.25;;;2.13;;
6467;SDS011;3267;48.794;9.928;2022-08-21T14:46:54;3.25;;;2.05;;
6467;SDS011;3267;48.794;9.928;2022-08-21T14:49:21;4.63;;;2.00;;
6467;SDS011;3267;48.794;9.928;2022-08-21T14:51:48;3.45;;;1.70;;
6467;SDS011;3267;48.794;9.928;2022-08-21T14:54:18;7.47;;;1.60;;
6467;SDS011;3267;48.794;9.928;2022-08-21T14:56:44;4.50;;;2.08;;
6467;SDS011;3267;48.794;9.928;2022-08-21T14:59:09;3.67;;;1.98;;
6467;SDS011;3267;48.794;9.928;2022-08-21T15:01:36;5.38;;;1.90;;
6467;SDS011;3267;48.794;9.928;2022-08-21T15:04:03;5.40;;;1.95;;
6467;SDS011;3267;48.794;9.928;2022-08-21T15:06:29;3.65;;;1.75;;
6467;SDS011;3267;48.794;9.928;2022-08-21T15:08:55;2.65;;;1.77;;
6467;SDS011;3267;48.794;9.928;2022-08-21T15:11:21;3.80;;;1.92;;
6467;SDS011;3267;48.794;9.928;2022-08-21T15:13:56;3.75;;;1.75;;
6467;SDS011;3267;48.794;9.928;2022-08-21T15:16:26;3.33;;;1.85;;
6467;SDS011;3267;48.794;9.928;2022-08-21T15:18:53;6.03;;;2.30;;
6467;SDS011;3267;48.794;9.928;2022-08-21T15:21:19;4.55;;;1.80;;
6467;SDS011;3267;48.794;9.928;2022-08-21T15:23:45;2.25;;;1.85;;
6467;SDS011;3267;48.794;9.928;2022-08-21T15:26:11;4.55;;;1.65;;
6467;SDS011;3267;48.794;9.928;2022-08-21T15:28:36;3.72;;;1.80;;
6467;SDS011;3267;48.794;9.928;2022-08-21T15:31:03;1.70;;;1.50;;
6467;SDS011;3267;48.794;9.928;2022-08-21T15:33:30;4.35;;;2.00;;
6467;SDS011;3267;48.794;9.928;2022-08-21T15:35:56;3.55;;;1.85;;
6467;SDS011;3267;48.794;9.928;2022-08-21T15:38:22;3.95;;;2.22;;
6467;SDS011;3267;48.794;9.928;2022-08-21T15:40:48;3.50;;;2.00;;
6467;SDS011;3267;48.794;9.928;2022-08-21T15:43:56;3.58;;;1.80;;
6467;SDS011;3267;48.794;9.928;2022-08-21T15:46:07;3.75;;;1.95;;
6467;SDS011;3267;48.794;9.928;2022-08-21T15:48:37;2.03;;;1.67;;
6467;SDS011;3267;48.794;9.928;2022-08-21T15:51:03;2.00;;;1.75;;
6467;SDS011;3267;48.794;9.928;2022-08-21T15:53:29;3.83;;;2.08;;
6467;SDS011;3267;48.794;9.928;2022-08-21T15:55:57;3.30;;;1.77;;
6467;SDS011;3267;48.794;9.928;2022-08-21T15:58:25;2.13;;;1.67;;
6467;SDS011;3267;48.794;9.928;2022-08-21T16:00:51;4.65;;;2.00;;
6467;SDS011;3267;48.794;9.928;2022-08-21T16:03:17;1.85;;;1.70;;
6467;SDS011;3267;48.794;9.928;2022-08-21T16:05:47;2.75;;;1.73;;
6467;SDS011;3267;48.794;9.928;2022-08-21T16:08:15;4.20;;;1.80;;
6467;SDS011;3267;48.794;9.928;2022-08-21T16:10:41;9.07;;;2.00;;
6467;SDS011;3267;48.794;9.928;2022-08-21T16:16:00;4.50;;;2.67;;
6467;SDS011;3267;48.794;9.928;2022-08-21T16:18:26;2.63;;;1.98;;
6467;SDS011;3267;48.794;9.928;2022-08-21T16:20:52;2.92;;;1.73;;
6467;SDS011;3267;48.794;9.928;2022-08-21T16:23:33;4.68;;;1.95;;
6467;SDS011;3267;48.794;9.928;2022-08-21T16:26:00;2.58;;;1.80;;
6467;SDS011;3267;48.794;9.928;2022-08-21T16:28:28;3.47;;;1.77;;
6467;SDS011;3267;48.794;9.928;2022-08-21T16:30:55;3.00;;;1.80;;
6467;SDS011;3267;48.794;9.928;2022-08-21T16:33:33;1.75;;;1.55;;
6467;SDS011;3267;48.794;9.928;2022-08-21T16:36:04;2.30;;;1.63;;
6467;SDS011;3267;48.794;9.928;2022-08-21T16:38:31;2.00;;;1.50;;
6467;SDS011;3267;48.794;9.928;2022-08-21T16:40:58;1.90;;;1.35;;
6467;SDS011;3267;48.794;9.928;2022-08-21T16:43:25;2.70;;;1.70;;
6467;SDS011;3267;48.794;9.928;2022-08-21T16:45:52;2.42;;;1.83;;
6467;SDS011;3267;48.794;9.928;2022-08-21T16:48:19;4.68;;;1.55;;
6467;SDS011;3267;48.794;9.928;2022-08-21T16:50:46;7.53;;;1.98;;
6467;SDS011;3267;48.794;9.928;2022-08-21T16:53:12;2.88;;;1.63;;
6467;SDS011;3267;48.794;9.928;2022-08-21T16:55:37;2.17;;;1.92;;
6467;SDS011;3267;48.794;9.928;2022-08-21T16:58:04;2.15;;;1.70;;
6467;SDS011;3267;48.794;9.928;2022-08-21T17:00:41;3.03;;;1.70;;
6467;SDS011;3267;48.794;9.928;2022-08-21T17:03:14;2.35;;;1.60;;
6467;SDS011;3267;48.794;9.928;2022-08-21T17:05:42;3.10;;;1.90;;
6467;SDS011;3267;48.794;9.928;2022-08-21T17:08:08;7.70;;;1.95;;
6467;SDS011;3267;48.794;9.928;2022-08-21T17:10:34;3.13;;;1.98;;
6467;SDS011;3267;48.794;9.928;2022-08-21T17:13:01;2.35;;;1.65;;
6467;SDS011;3267;48.794;9.928;2022-08-21T17:15:32;2.58;;;1.50;;
6467;SDS011;3267;48.794;9.928;2022-08-21T17:18:00;4.80;;;1.55;;
6467;SDS011;3267;48.794;9.928;2022-08-21T17:20:27;8.38;;;1.77;;
6467;SDS011;3267;48.794;9.928;2022-08-21T17:22:53;4.07;;;1.42;;
6467;SDS011;3267;48.794;9.928;2022-08-21T17:25:19;3.22;;;1.50;;
6467;SDS011;3267;48.794;9.928;2022-08-21T17:27:46;1.92;;;1.40;;
6467;SDS011;3267;48.794;9.928;2022-08-21T17:30:13;2.70;;;1.75;;
6467;SDS011;3267;48.794;9.928;2022-08-21T17:32:41;6.57;;;2.05;;
6467;SDS011;3267;48.794;9.928;2022-08-21T17:35:08;3.88;;;1.67;;
6467;SDS011;3267;48.794;9.928;2022-08-21T17:37:35;2.05;;;1.65;;
6467;SDS011;3267;48.794;9.928;2022-08-21T17:40:05;3.30;;;1.83;;
6467;SDS011;3267;48.794;9.928;2022-08-21T17:42:35;3.33;;;1.88;;
6467;SDS011;3267;48.794;9.928;2022-08-21T17:45:01;2.47;;;1.70;;
6467;SDS011;3267;48.794;9.928;2022-08-21T17:47:29;2.55;;;1.60;;
6467;SDS011;3267;48.794;9.928;2022-08-21T17:49:55;2.70;;;1.65;;
6467;SDS011;3267;48.794;9.928;2022-08-21T17:52:20;4.40;;;2.10;;
6467;SDS011;3267;48.794;9.928;2022-08-21T17:54:46;3.00;;;1.80;;
6467;SDS011;3267;48.794;9.928;2022-08-21T17:57:18;3.03;;;1.75;;
6467;SDS011;3267;48.794;9.928;2022-08-21T17:59:46;3.63;;;1.90;;
6467;SDS011;3267;48.794;9.928;2022-08-21T18:02:12;1.38;;;1.25;;
6467;SDS011;3267;48.794;9.928;2022-08-21T18:04:39;4.63;;;1.60;;
6467;SDS011;3267;48.794;9.928;2022-08-21T18:07:05;2.65;;;1.70;;
6467;SDS011;3267;48.794;9.928;2022-08-21T18:09:31;4.30;;;1.80;;
6467;SDS011;3267;48.794;9.928;2022-08-21T18:11:57;3.25;;;1.73;;
6467;SDS011;3267;48.794;9.928;2022-08-21T18:14:28;3.85;;;1.70;;
6467;SDS011;3267;48.794;9.928;2022-08-21T18:16:57;3.33;;;1.67;;
6467;SDS011;3267;48.794;9.928;2022-08-21T18:19:23;2.95;;;1.75;;
6467;SDS011;3267;48.794;9.928;2022-08-21T18:21:54;4.30;;;1.70;;
6467;SDS011;3267;48.794;9.928;2022-08-21T18:24:21;3.92;;;1.70;;
6467;SDS011;3267;48.794;9.928;2022-08-21T18:26:48;6.15;;;1.60;;
6467;SDS011;3267;48.794;9.928;2022-08-21T18:29:16;2.17;;;1.60;;
6467;SDS011;3267;48.794;9.928;2022-08-21T18:31:44;3.95;;;1.80;;
6467;SDS011;3267;48.794;9.928;2022-08-21T18:34:24;2.42;;;1.60;;
6467;SDS011;3267;48.794;9.928;2022-08-21T18:37:08;4.72;;;1.88;;
6467;SDS011;3267;48.794;9.928;2022-08-21T18:39:34;5.05;;;2.13;;
6467;SDS011;3267;48.794;9.928;2022-08-21T18:42:01;8.35;;;3.28;;
6467;SDS011;3267;48.794;9.928;2022-08-21T18:44:32;2.90;;;1.70;;
6467;SDS011;3267;48.794;9.928;2022-08-21T18:47:02;3.42;;;1.95;;
6467;SDS011;3267;48.794;9.928;2022-08-21T18:49:31;2.65;;;1.73;;
6467;SDS011;3267;48.794;9.928;2022-08-21T18:51:58;4.07;;;1.88;;
6467;SDS011;3267;48.794;9.928;2022-08-21T18:54:24;2.50;;;1.63;;
6467;SDS011;3267;48.794;9.928;2022-08-21T18:56:50;2.38;;;1.70;;
6467;SDS011;3267;48.794;9.928;2022-08-21T18:59:17;2.83;;;1.80;;
6467;SDS011;3267;48.794;9.928;2022-08-21T19:01:42;3.15;;;1.63;;
6467;SDS011;3267;48.794;9.928;2022-08-21T19:04:09;2.88;;;1.73;;
6467;SDS011;3267;48.794;9.928;2022-08-21T19:06:36;4.32;;;2.00;;
6467;SDS011;3267;48.794;9.928;2022-08-21T19:09:03;3.20;;;1.67;;
6467;SDS011;3267;48.794;9.928;2022-08-21T19:11:34;3.15;;;2.10;;
6467;SDS011;3267;48.794;9.928;2022-08-21T19:14:02;4.97;;;1.70;;
6467;SDS011;3267;48.794;9.928;2022-08-21T19:16:29;3.67;;;1.90;;
6467;SDS011;3267;48.794;9.928;2022-08-21T19:18:56;3.00;;;1.77;;
6467;SDS011;3267;48.794;9.928;2022-08-21T19:21:24;2.80;;;1.92;;
6467;SDS011;3267;48.794;9.928;2022-08-21T19:23:50;3.75;;;1.52;;
6467;SDS011;3267;48.794;9.928;2022-08-21T19:26:18;2.95;;;1.80;;
6467;SDS011;3267;48.794;9.928;2022-08-21T19:28:47;4.47;;;1.83;;
6467;SDS011;3267;48.794;9.928;2022-08-21T19:31:17;2.35;;;1.77;;
6467;SDS011;3267;48.794;9.928;2022-08-21T19:33:49;3.85;;;1.75;;
6467;SDS011;3267;48.794;9.928;2022-08-21T19:36:19;1.75;;;1.42;;
6467;SDS011;3267;48.794;9.928;2022-08-21T19:38:45;2.33;;;1.70;;
6467;SDS011;3267;48.794;9.928;2022-08-21T19:41:12;1.70;;;1.60;;
6467;SDS011;3267;48.794;9.928;2022-08-21T19:43:50;3.88;;;2.13;;
6467;SDS011;3267;48.794;9.928;2022-08-21T19:46:19;2.83;;;1.60;;
6467;SDS011;3267;48.794;9.928;2022-08-21T19:48:53;5.05;;;1.73;;
6467;SDS011;3267;48.794;9.928;2022-08-21T19:51:19;2.50;;;1.80;;
6467;SDS011;3267;48.794;9.928;2022-08-21T19:53:45;7.90;;;1.90;;
6467;SDS011;3267;48.794;9.928;2022-08-21T19:56:13;3.90;;;1.80;;
6467;SDS011;3267;48.794;9.928;2022-08-21T19:58:43;2.58;;;1.90;;
6467;SDS011;3267;48.794;9.928;2022-08-21T20:01:12;8.05;;;2.35;;
6467;SDS011;3267;48.794;9.928;2022-08-21T20:03:40;4.47;;;1.88;;
6467;SDS011;3267;48.794;9.928;2022-08-21T20:06:07;2.95;;;2.08;;
6467;SDS011;3267;48.794;9.928;2022-08-21T20:08:34;5.38;;;2.08;;
6467;SDS011;3267;48.794;9.928;2022-08-21T20:11:02;3.40;;;1.60;;
6467;SDS011;3267;48.794;9.928;2022-08-21T20:13:29;5.18;;;2.10;;
6467;SDS011;3267;48.794;9.928;2022-08-21T20:15:59;1.75;;;1.65;;
6467;SDS011;3267;48.794;9.928;2022-08-21T20:18:28;2.25;;;1.67;;
6467;SDS011;3267;48.794;9.928;2022-08-21T20:20:55;3.58;;;1.67;;
6467;SDS011;3267;48.794;9.928;2022-08-21T20:23:22;6.43;;;2.03;;
6467;SDS011;3267;48.794;9.928;2022-08-21T20:25:47;5.10;;;1.95;;
6467;SDS011;3267;48.794;9.928;2022-08-21T20:28:13;3.80;;;1.63;;
6467;SDS011;3267;48.794;9.928;2022-08-21T20:30:42;2.75;;;1.77;;
6467;SDS011;3267;48.794;9.928;2022-08-21T20:33:08;2.10;;;1.90;;
6467;SDS011;3267;48.794;9.928;2022-08-21T20:35:34;4.22;;;1.90;;
6467;SDS011;3267;48.794;9.928;2022-08-21T20:38:01;5.18;;;2.03;;
6467;SDS011;3267;48.794;9.928;2022-08-21T20:40:28;2.20;;;1.80;;
6467;SDS011;3267;48.794;9.928;2022-08-21T20:42:53;4.55;;;2.20;;
6467;SDS011;3267;48.794;9.928;2022-08-21T20:45:24;4.25;;;1.80;;
6467;SDS011;3267;48.794;9.928;2022-08-21T20:48:00;3.47;;;1.65;;
6467;SDS011;3267;48.794;9.928;2022-08-21T20:50:30;3.00;;;2.00;;
6467;SDS011;3267;48.794;9.928;2022-08-21T20:53:13;3.22;;;1.90;;
6467;SDS011;3267;48.794;9.928;2022-08-21T20:55:48;3.65;;;2.22;;